Tiempo atmosférico en la estación meteorológica de Torrelavega, Sierrapando, Cantabria (100 m.)



Fecha
DESCASC
Temp. máxima en grados centígrados (hora)
DESCASC
Temp. mínima en grados centígrados (hora)
DESCASC
Temp. media en grados centígrados
DESCASC
Racha de viento máxima en m/sg (hora)
DESCASC
Velocidad máxima media en intervalos de 10 minutos(hora)
DESCASC
Precipitaciones diarias en mm
DESCASC
Precipitaciones de 00:00 a 06:00 en mm
DESCASC
Precipitaciones de 06:00 a 12:00 en mm
DESCASC
Precipitaciones de 12:00 a 18:00 en mm
DESCASC
Precipitaciones de 18:00 a 24:00 en mm
DESCASC
29-03-2020 14.7 (14:20) 4.9 (07:50) 9.8 10.56 (20:10) 6.94 (20:40) 0.2 0 0 0 0.2
28-03-2020 15 (14:50) 3.5 (06:30) 9.3 7.78 (17:00) 5.56 (16:50) 0 0 0 0 0
27-03-2020 13.1 (11:50) 2.8 (07:10) 8 11.11 (16:00) 7.78 (15:40) 0 0 0 0 0
26-03-2020 12.7 (13:50) 6 (00:00) 9.3 12.22 (14:20) 8.61 (13:10) 0 0 0 0 0
25-03-2020 15.6 (15:00) 6.8 (00:00) 11.2 7.5 (12:10) 5.83 (12:10) 0 0 0 0 0
24-03-2020 19.6 (13:20) 7.7 (00:00) 13.7 12.5 (15:30) 9.72 (15:20) 0 0 0 0 0
23-03-2020 15.6 (14:50) 10.1 (00:00) 12.9 9.44 (15:20) 6.67 (15:30) 0 0 0 0 0
22-03-2020 15.6 (15:20) 10.6 (04:50) 13.1 8.33 (16:00) 5.56 (16:10) 0 0 0 0 0
21-03-2020 19.8 (13:00) 9.6 (00:00) 14.7 9.72 (10:20) 6.11 (08:30) 0 0 0 0 0
20-03-2020 15.7 (13:20) 9.5 (00:00) 12.6 -- (--) -- (--) -- -- 0 0 0
19-03-2020 13.9 (13:10) 10 (00:00) 11.9 4.72 (16:00) 3.61 (16:00) 0 0 0 0 0
18-03-2020 14.4 (14:20) 7.3 (00:00) 10.8 5 (15:30) 3.61 (15:30) 0 0 0 0 0
17-03-2020 13.3 (14:40) 8.3 (00:00) 10.8 8.61 (20:20) 6.67 (18:40) 0 0 0 0 0
16-03-2020 11 (13:00) 5.6 (00:00) 8.3 10.56 (13:40) 7.5 (13:40) 16.4 2.2 8.6 4.4 1.2
15-03-2020 14.1 (16:20) 6 (00:00) 10.1 12.22 (18:30) 7.78 (17:50) 5.6 0 0 0 5.6
14-03-2020 14.6 (11:40) 5.9 (00:00) 10.3 7.78 (16:30) 5.83 (16:50) 0 0 0 0 0
13-03-2020 13.7 (14:30) 6.5 (23:59) 10.1 8.06 (14:00) 5.28 (14:10) 1 1 0 0 0
12-03-2020 13.3 (12:40) 9.7 (00:00) 11.5 8.89 (16:00) 5.83 (16:00) 6 0 0 2.2 3.8
11-03-2020 17.7 (13:50) 7.5 (00:00) 12.6 6.67 (14:50) 5 (03:40) 0 0 0 0 0
10-03-2020 14.9 (15:50) 6.5 (00:00) 10.7 6.39 (15:10) 5 (09:00) 0 0 0 0 0
09-03-2020 13.4 (12:40) 9.4 (00:00) 11.4 13.06 (12:20) 8.89 (11:50) 1.2 1.2 0 0 0
08-03-2020 18.4 (14:10) 5.2 (00:00) 11.8 14.72 (22:40) 8.33 (21:00) 2 0 0 0 2
07-03-2020 14.4 (13:50) 7 (00:00) 10.7 11.11 (02:10) 7.22 (00:40) 3.4 0.6 2.8 0 0
06-03-2020 10.1 (13:40) 5.7 (00:00) 7.9 30.28 (12:30) 15 (12:30) 24 4 6.4 10 3.6
05-03-2020 18.6 (04:10) 7.7 (00:00) 13.2 26.39 (13:30) 17.78 (13:30) 10.6 0 5.2 1 4.4
04-03-2020 18.3 (14:00) 10.2 (00:00) 14.2 6.94 (21:00) 5.28 (21:00) 2.6 2.6 0 0 0
03-03-2020 17.1 (11:20) 5.8 (00:00) 11.5 27.78 (13:20) 18.06 (14:30) 4.8 3 1 0 0.8
02-03-2020 10.5 (00:00) 5.9 (00:00) 8.2 27.22 (06:30) 15.83 (05:30) 35.4 13 14.2 5 3.2
01-03-2020 16.4 (10:50) 8.1 (00:00) 12.3 18.06 (07:40) 11.94 (07:50) 0 0 0 0 0
29-02-2020 19.6 (02:40) 10.3 (00:00) 15 22.22 (04:00) 14.72 (02:20) 0 0 0 0 0

Gráficas

Temp. máximas Temp. mínimas Temp. medias Precipitaciones Rachas de viento máximas Velocidades máximas media en intervalos de 10 minutos

Datos horarios

Fecha y hora oficial Temperatura (ºC) Velocidad del viento (km/h) Dirección del viento Racha (km/h) Dirección de racha Precipitación (mm) Presión (hPa) Tendencia (hPa) Humedad (%)
2020-03-29 23:00:00 7.4 14 Nordeste 30 Nordeste 0 -- -- 81
2020-03-29 22:00:00 7.8 19 Nordeste 33 Nordeste 0 -- -- 81
2020-03-29 21:00:00 7.9 23 Nordeste 38 Nordeste 0 -- -- 84
2020-03-29 20:00:00 8.2 22 Nordeste 33 Nordeste 0 -- -- 89
2020-03-29 19:00:00 8.5 19 Nordeste 27 Nordeste 0 -- -- 93
2020-03-29 18:00:00 9.1 16 Nordeste 30 Nordeste 0 -- -- 93
2020-03-29 17:00:00 9.8 18 Nordeste 30 Nordeste 0 -- -- 90
2020-03-29 16:00:00 11.7 18 Norte 28 Norte 0 -- -- 71
2020-03-29 15:00:00 14.6 13 Norte 24 Norte 0 -- -- 64
2020-03-29 14:00:00 14 11 Norte 24 Nordeste 0 -- -- 61
2020-03-29 13:00:00 14.1 9 Norte 18 Norte 0 -- -- 68
2020-03-29 12:00:00 13.4 3 Norte 12 Sudoeste 0 -- -- 72
2020-03-29 11:00:00 10.6 7 Sudoeste 10 Sudoeste 0 -- -- 77
2020-03-29 10:00:00 7.8 8 Sur 12 Sur 0 -- -- 84
2020-03-29 09:00:00 5.8 9 Sur 19 Sudeste 0 -- -- 89
2020-03-29 08:00:00 5 9 Sur 14 Sur 0 -- -- 91
2020-03-29 07:00:00 5.2 10 Sur 14 Sudeste 0 -- -- 91
2020-03-29 06:00:00 5.3 9 Sur 14 Sudeste 0 -- -- 90
2020-03-29 05:00:00 5.7 8 Sur 16 Sur 0 -- -- 90
2020-03-29 03:00:00 6.5 9 Sur 12 Sur 0 -- -- 89
2020-03-29 01:00:00 7.2 7 Sur 13 Sudoeste 0 -- -- 88
2020-03-29 00:00:00 7.3 12 Sudoeste 17 Sudoeste 0 -- -- 88
2020-03-28 23:00:00 8.2 11 Sudoeste 13 Sudoeste 0 -- -- 86
2020-03-28 22:00:00 9.3 6 Sudoeste 8 Sudoeste 0 -- -- 81
2020-03-28 21:00:00 10.3 0 Calma 8 Nordeste 0 -- -- 78
2020-03-28 20:00:00 10.5 6 Nordeste 12 Nordeste 0 -- -- 77
2020-03-28 19:00:00 12.2 8 Nordeste 22 Nordeste 0 -- -- 72
2020-03-28 18:00:00 13.2 16 Nordeste 26 Nordeste 0 -- -- 67
2020-03-28 17:00:00 14 18 Nordeste 28 Nordeste 0 -- -- 67
2020-03-28 16:00:00 14.5 18 Nordeste 27 Norte 0 -- -- 70
2020-03-28 15:00:00 15 19 Nordeste 27 Nordeste 0 -- -- 68
2020-03-28 14:00:00 14.6 17 Norte 23 Norte 0 -- -- 68
2020-03-28 13:00:00 14.4 12 Norte 21 Nordeste 0 -- -- 69
2020-03-28 12:00:00 14.1 8 Nordeste 16 Nordeste 0 -- -- 59
2020-03-28 11:00:00 13.5 2 Nordeste 9 Oeste 0 -- -- 63
2020-03-28 10:00:00 11 2 Sur 6 Oeste 0 -- -- 73
2020-03-28 09:00:00 7 4 Oeste 12 Sur 0 -- -- 82
2020-03-28 08:00:00 5.3 8 Sur 12 Sur 0 -- -- 87
2020-03-28 07:00:00 4.1 10 Sur 14 Sudoeste 0 -- -- 91
2020-03-28 06:00:00 3.8 9 Sudoeste 13 Sudoeste 0 -- -- 92
2020-03-28 05:00:00 3.9 12 Sudoeste 13 Sudoeste 0 -- -- 91
2020-03-28 04:00:00 4.5 10 Sudoeste 12 Sudoeste 0 -- -- 90
2020-03-28 03:00:00 4.5 8 Sudoeste 19 Sudeste 0 -- -- 89
2020-03-28 02:00:00 5 13 Sudeste 20 Sudeste 0 -- -- 88
2020-03-28 01:00:00 5.4 11 Sudeste 18 Sudeste 0 -- -- 88
2020-03-28 00:00:00 6.1 7 Oeste 13 Sudeste 0 -- -- 84
2020-03-27 23:00:00 7.3 4 Sudeste 15 Este 0 -- -- 80
2020-03-27 22:00:00 8.1 13 Sudeste 20 Sudeste 0 -- -- 78
2020-03-27 21:00:00 8.7 14 Sudeste 31 Este 0 -- -- 76
2020-03-27 20:00:00 9.4 21 Este 35 Este 0 -- -- 73
2020-03-27 19:00:00 10.6 16 Este 33 Este 0 -- -- 68
2020-03-27 18:00:00 11.6 14 Este 32 Nordeste 0 -- -- 64
2020-03-27 17:00:00 12.1 18 Nordeste 38 Este 0 -- -- 65
2020-03-27 16:00:00 12.4 27 Nordeste 40 Nordeste 0 -- -- 57
2020-03-27 15:00:00 12.7 24 Nordeste 38 Nordeste 0 -- -- 62
2020-03-27 14:00:00 12.8 21 Nordeste 35 Nordeste 0 -- -- 62
2020-03-27 13:00:00 11.9 22 Nordeste 29 Nordeste 0 -- -- 64
2020-03-27 12:00:00 12.6 12 Nordeste 22 Nordeste 0 -- -- 58
2020-03-27 11:00:00 12.4 3 Sudeste 11 Sudeste 0 -- -- 56
2020-03-27 10:00:00 9.2 6 Sudeste 10 Sudeste 0 -- -- 69
2020-03-27 09:00:00 6.4 5 Sur 13 Sudeste 0 -- -- 75
2020-03-27 08:00:00 3.8 8 Sur 18 Sudeste 0 -- -- 82
2020-03-27 07:00:00 2.9 9 Sur 19 Sudeste 0 -- -- 84
2020-03-27 06:00:00 3.3 10 Sur 15 Sudeste 0 -- -- 83
2020-03-27 05:00:00 3.6 8 Sur 16 Sur 0 -- -- 83
2020-03-27 04:00:00 4.1 11 Sur 20 Sudeste 0 -- -- 81
2020-03-27 03:00:00 4.3 9 Sur 15 Sudeste 0 -- -- 80
2020-03-27 02:00:00 4.9 9 Sur 14 Sudoeste 0 -- -- 77
2020-03-27 01:00:00 5.5 12 Sudoeste 14 Sudoeste 0 -- -- 76
2020-03-27 00:00:00 6.5 8 Sudoeste 12 Sudoeste 0 -- -- 71
2020-03-26 23:00:00 7.4 8 Sudoeste 10 Sudoeste 0 -- -- 67
2020-03-26 22:00:00 7.9 0 Calma 12 Nordeste 0 -- -- 62
2020-03-26 21:00:00 7.9 4 Nordeste 12 Nordeste 0 -- -- 63
2020-03-26 20:00:00 7.8 9 Nordeste 24 Nordeste 0 -- -- 63
2020-03-26 19:00:00 8.9 16 Nordeste 32 Nordeste 0 -- -- 62
2020-03-26 18:00:00 9.6 16 Nordeste 30 Nordeste 0 -- -- 65
2020-03-26 17:00:00 9.9 15 Norte 25 Norte 0 -- -- 68
2020-03-26 16:00:00 10 15 Norte 39 Noroeste 0 -- -- 68
2020-03-26 15:00:00 11.1 19 Noroeste 44 Noroeste 0 -- -- 72
2020-03-26 14:00:00 12.1 26 Noroeste 43 Oeste 0 -- -- 67
2020-03-26 13:00:00 11.8 25 Noroeste 37 Noroeste 0 -- -- 68
2020-03-26 12:00:00 11.5 19 Noroeste 39 Oeste 0 -- -- 72
2020-03-26 11:00:00 10.5 22 Noroeste 40 Oeste 0 -- -- 74
2020-03-26 10:00:00 9.7 22 Oeste 38 Oeste 0 -- -- 74
2020-03-26 09:00:00 8.9 19 Oeste 33 Oeste 0 -- -- 79
2020-03-26 08:00:00 8.1 17 Oeste 28 Oeste 0 -- -- 81
2020-03-26 07:00:00 7.8 12 Oeste 22 Oeste 0 -- -- 82
2020-03-26 06:00:00 7.5 9 Oeste 14 Sudoeste 0 -- -- 83
2020-03-26 05:00:00 6.7 14 Sudoeste 17 Sudoeste 0 -- -- 86
2020-03-26 04:00:00 6.1 11 Sudoeste 20 Oeste 0 -- -- 88
2020-03-26 03:00:00 6.2 15 Sudoeste 18 Sudoeste 0 -- -- 88
2020-03-26 02:00:00 6.6 15 Sudoeste 19 Sudoeste 0 -- -- 87
2020-03-26 01:00:00 7.2 10 Sudoeste 12 Sudoeste 0 -- -- 85
2020-03-26 00:00:00 7.5 6 Sudoeste 8 Sudoeste 0 -- -- 83
2020-03-25 23:00:00 8.1 6 Sudoeste 8 Sudoeste 0 -- -- 80
2020-03-25 22:00:00 8.4 0 Calma 10 Nordeste 0 -- -- 81
2020-03-25 21:00:00 8.4 7 Nordeste 9 Nordeste 0 -- -- 79
2020-03-25 20:00:00 9.5 8 Noroeste 13 Noroeste 0 -- -- 77
2020-03-25 19:00:00 10.7 9 Noroeste 18 Norte 0 -- -- 76
2020-03-25 18:00:00 11.5 11 Nordeste 24 Nordeste 0 -- -- 74
2020-03-25 17:00:00 13 15 Norte 22 Noroeste 0 -- -- 74
2020-03-25 16:00:00 14.5 11 Norte 22 Norte 0 -- -- 73
2020-03-25 15:00:00 15.6 14 Norte 22 Nordeste 0 -- -- 76
2020-03-25 14:00:00 14.9 10 Norte 22 Noroeste 0 -- -- 78
2020-03-25 13:00:00 14.7 14 Norte 27 Norte 0 -- -- 82
2020-03-25 12:00:00 14.2 19 Norte 25 Norte 0 -- -- 83
2020-03-25 11:00:00 15 5 Norte 12 Norte 0 -- -- 76
2020-03-25 10:00:00 12.8 2 Oeste 16 Sudoeste 0 -- -- 77
2020-03-25 09:00:00 9.4 14 Sudoeste 18 Sudoeste 0 -- -- 86
2020-03-25 08:00:00 7.5 10 Sudoeste 16 Sudoeste 0 -- -- 92
2020-03-25 07:00:00 7 6 Oeste 14 Sudoeste 0 -- -- 91
2020-03-25 06:00:00 7.4 8 Sudoeste 12 Sur 0 -- -- 90
2020-03-25 05:00:00 8.1 9 Sur 16 Sudeste 0 -- -- 88
2020-03-25 04:00:00 8.2 7 Sur 15 Sur 0 -- -- 90
2020-03-25 03:00:00 8.5 9 Sur 14 Sur 0 -- -- 89
2020-03-25 02:00:00 8.8 12 Sudeste 19 Sudeste 0 -- -- 89
2020-03-25 01:00:00 9.5 8 Sur 11 Sur 0 -- -- 87
2020-03-25 00:00:00 9.9 11 Sudoeste 13 Sudoeste 0 -- -- 85
2020-03-24 23:00:00 10.7 6 Sudoeste 8 Sudoeste 0 -- -- 83
2020-03-24 22:00:00 11.5 6 Sur 8 Sudeste 0 -- -- 80
2020-03-24 21:00:00 12.5 0 Calma 8 Sudeste 0 -- -- 73
2020-03-24 20:00:00 13.7 6 Sur 29 Este 0 -- -- 68
2020-03-24 19:00:00 15.4 23 Este 35 Este 0 -- -- 64
2020-03-24 18:00:00 16.5 24 Este 37 Este 0 -- -- 66
2020-03-24 17:00:00 17.1 22 Este 41 Este 0 -- -- 69
2020-03-24 16:00:00 17.5 31 Este 45 Este 0 -- -- 66
2020-03-24 15:00:00 18.2 32 Este 42 Este 0 -- -- 61
2020-03-24 14:00:00 19.2 19 Este 29 Nordeste 0 -- -- 61
2020-03-24 13:00:00 19.1 14 Este 23 Este 0 -- -- 60
2020-03-24 12:00:00 17.9 15 Este 26 Nordeste 0 -- -- 66
2020-03-24 11:00:00 17.4 12 Nordeste 18 Este 0 -- -- 69
2020-03-24 10:00:00 14.9 7 Sudeste 11 Sudeste 0 -- -- 78
2020-03-24 09:00:00 12.6 8 Sur 17 Sudeste 0 -- -- 84
2020-03-24 08:00:00 9.4 10 Sur 20 Sudeste 0 -- -- 93
2020-03-24 07:00:00 8.5 17 Sudeste 24 Sudeste 0 -- -- 97
2020-03-24 06:00:00 8.5 18 Sudeste 24 Sudeste 0 -- -- 98
2020-03-24 05:00:00 8.4 12 Sudeste 21 Sudeste 0 -- -- 97
2020-03-24 04:00:00 8.6 15 Sudeste 19 Sudeste 0 -- -- 97
2020-03-24 03:00:00 8.6 7 Sur 19 Sudeste 0 -- -- 96
2020-03-24 02:00:00 9 10 Sudeste 16 Sudeste 0 -- -- 96
2020-03-24 01:00:00 9.4 11 Sudeste 15 Sudeste 0 -- -- 95
2020-03-24 00:00:00 10.1 7 Sudoeste 8 Sudoeste 0 -- -- 93
2020-03-23 23:00:00 10.6 4 Sudoeste 4 Sudoeste 0 -- -- 92
2020-03-23 22:00:00 11 2 Este 8 Este 0 -- -- 91
2020-03-23 21:00:00 11.1 4 Nordeste 7 Nordeste 0 -- -- 90
2020-03-23 20:00:00 11.7 5 Norte 13 Nordeste 0 -- -- 88
2020-03-23 19:00:00 12.4 10 Nordeste 28 Nordeste 0 -- -- 86
2020-03-23 18:00:00 13.1 17 Nordeste 29 Nordeste 0 -- -- 83
2020-03-23 17:00:00 13.8 21 Este 30 Este 0 -- -- 79
2020-03-23 16:00:00 14.8 21 Este 34 Nordeste 0 -- -- 77
2020-03-23 15:00:00 15.3 20 Nordeste 29 Nordeste 0 -- -- 76
2020-03-23 14:00:00 14.3 19 Este 27 Nordeste 0 -- -- 78
2020-03-23 13:00:00 14.4 16 Nordeste 24 Nordeste 0 -- -- 80
2020-03-23 12:00:00 14.7 10 Este 16 Nordeste 0 -- -- 81
2020-03-23 11:00:00 12.6 10 Nordeste 12 Nordeste 0 -- -- 88
2020-03-23 10:00:00 11.9 3 Nordeste 4 Nordeste 0 -- -- 93
2020-03-23 09:00:00 11.1 3 Este 5 Sudeste 0 -- -- 94
2020-03-23 08:00:00 10.7 2 Este 6 Sudeste 0 -- -- 94
2020-03-23 07:00:00 10.6 3 Sudeste 7 Sudeste 0 -- -- 95
2020-03-23 06:00:00 10.6 4 Este 11 Sudeste 0 -- -- 95
2020-03-23 05:00:00 10.7 6 Sudeste 10 Este 0 -- -- 95
2020-03-23 04:00:00 10.7 4 Este 9 Nordeste 0 -- -- 95
2020-03-23 03:00:00 10.8 4 Nordeste 7 Nordeste 0 -- -- 95
2020-03-23 02:00:00 10.9 4 Nordeste 6 Norte 0 -- -- 95
2020-03-23 01:00:00 11 3 Nordeste 8 Este 0 -- -- 95
2020-03-23 00:00:00 11.2 6 Este 10 Nordeste 0 -- -- 95
2020-03-22 23:00:00 11.4 5 Nordeste 7 Nordeste 0 -- -- 94
2020-03-22 22:00:00 11.7 6 Nordeste 9 Nordeste 0 -- -- 93
2020-03-22 21:00:00 12 4 Nordeste 9 Oeste 0 -- -- 93
2020-03-22 20:00:00 12.1 8 Oeste 10 Oeste 0 -- -- 92
2020-03-22 19:00:00 12.6 5 Noroeste 17 Noroeste 0 -- -- 87
2020-03-22 18:00:00 13.5 14 Noroeste 22 Norte 0 -- -- 85
2020-03-22 17:00:00 14.1 17 Norte 27 Noroeste 0 -- -- 83
2020-03-22 16:00:00 14.9 18 Noroeste 30 Noroeste 0 -- -- 74
2020-03-22 15:00:00 15.3 16 Noroeste 24 Noroeste 0 -- -- 75
2020-03-22 14:00:00 15.3 14 Norte 22 Norte 0 -- -- 76
2020-03-22 13:00:00 14.8 14 Norte 21 Noroeste 0 -- -- 78
2020-03-22 12:00:00 14.4 9 Oeste 16 Oeste 0 -- -- 75
2020-03-22 11:00:00 13 10 Oeste 14 Oeste 0 -- -- 82
2020-03-22 10:00:00 12.2 3 Sudoeste 13 Sudoeste 0 -- -- 86
2020-03-22 09:00:00 11.5 9 Sudoeste 15 Oeste 0 -- -- 89
2020-03-22 08:00:00 11.1 8 Oeste 14 Sudoeste 0 -- -- 89
2020-03-22 07:00:00 10.8 12 Sudoeste 15 Sudoeste 0 -- -- 89
2020-03-22 06:00:00 10.8 9 Oeste 16 Oeste 0 -- -- 90
2020-03-22 05:00:00 10.6 8 Sudoeste 17 Oeste 0 -- -- 91
2020-03-22 04:00:00 10.8 9 Oeste 14 Oeste 0 -- -- 90
2020-03-22 03:00:00 11 10 Oeste 14 Sudoeste 0 -- -- 91
2020-03-22 02:00:00 11.1 9 Sudoeste 17 Sudoeste 0 -- -- 91
2020-03-22 01:00:00 11.1 11 Sudoeste 15 Sudoeste 0 -- -- 91
2020-03-22 00:00:00 11.2 9 Oeste 13 Oeste 0 -- -- 92
2020-03-21 23:00:00 11.2 5 Oeste 13 Oeste 0 -- -- 92
2020-03-21 22:00:00 11.1 10 Oeste 16 Oeste 0 -- -- 93
2020-03-21 21:00:00 11.1 11 Oeste 18 Noroeste 0 -- -- 93
2020-03-21 20:00:00 11.1 12 Noroeste 17 Noroeste 0 -- -- 92
2020-03-21 19:00:00 12.2 9 Noroeste 18 Noroeste 0 -- -- 89
2020-03-21 18:00:00 13 16 Noroeste 25 Noroeste 0 -- -- 87
2020-03-21 17:00:00 14.6 15 Norte 19 Norte 0 -- -- 80
2020-03-21 16:00:00 16 11 Norte 20 Norte 0 -- -- 76
2020-03-21 15:00:00 16.5 14 Norte 24 Nordeste 0 -- -- 71
2020-03-21 14:00:00 16.2 17 Nordeste 25 Nordeste 0 -- -- 77
2020-03-21 13:00:00 19.8 10 Este 24 Sudeste 0 -- -- 64
2020-03-21 12:00:00 18.4 19 Sudeste 27 Sudeste 0 -- -- 63
2020-03-21 11:00:00 17.6 14 Sudeste 35 Sur 0 -- -- 60
2020-03-21 10:00:00 16.4 13 Sur 28 Sur 0 -- -- 64
2020-03-21 09:00:00 13.7 19 Sudeste 32 Sudeste 0 -- -- 70
2020-03-21 08:00:00 12.7 18 Sudeste 26 Sudeste 0 -- -- 73
2020-03-21 07:00:00 10.2 6 Norte 23 Sudoeste 0 -- -- 87
2020-03-21 06:00:00 10.5 12 Sur 21 Sudoeste 0 -- -- 96
2020-03-21 05:00:00 9.9 4 Nordeste 11 Nordeste 0 -- -- 95
2020-03-21 04:00:00 10.6 8 Norte 23 Sudoeste 0 -- -- 89
2020-03-21 03:00:00 15.5 11 Sudoeste 33 Sudoeste 0 -- -- 62
2020-03-21 02:00:00 14.9 4 Sudeste 14 Este 0 -- -- 66
2020-03-21 01:00:00 14.3 9 Este 16 Este 0 -- -- 70
2020-03-21 00:00:00 13.7 4 Este 13 Este 0 -- -- 75
2020-03-20 23:00:00 12.4 4 Sudeste 17 Sur 0 -- -- 92
2020-03-20 22:00:00 10.6 4 Nordeste 5 Norte 0 -- -- 96
2020-03-20 21:00:00 10.8 3 Sudeste 4 Sudeste 0 -- -- 96
2020-03-20 20:00:00 10.9 4 Norte 8 Norte 0 -- -- 95
2020-03-20 19:00:00 11.6 6 Noroeste 9 Noroeste 0 -- -- 93
2020-03-20 18:00:00 12.1 6 Nordeste 14 Norte 0 -- -- 92
2020-03-20 17:00:00 12.6 9 Norte 17 Norte 0 -- -- 91
2020-03-20 16:00:00 13.7 12 Norte 18 Norte 0 -- -- 88
2020-03-20 15:00:00 14.1 13 Norte 20 Norte 0 -- -- 87
2020-03-20 14:00:00 14.2 13 Nordeste 18 Norte 0 -- -- 86
2020-03-20 13:00:00 14.7 7 Norte 15 Norte 0 -- -- 84
2020-03-20 12:00:00 13.9 8 Norte 15 Nordeste 0 -- -- 87
2020-03-20 11:00:00 13.4 10 Norte 20 Sudeste 0 -- -- 87
2020-03-20 10:00:00 15.3 10 Sudeste 27 Sudoeste 0 -- -- 61
2020-03-20 09:00:00 13.9 15 Sur 31 Sur 0 -- -- 68
2020-03-20 08:00:00 12.2 5 Sudeste 24 Sudeste 0 -- -- 77
2020-03-20 07:00:00 11.5 16 Sudeste 26 Sudeste 0 -- -- 91
2020-03-20 06:00:00 9.7 3 Norte 9 Nordeste 0 -- -- 100
2020-03-20 05:00:00 9.9 3 Nordeste 6 Sudoeste 0 -- -- 99
2020-03-20 04:00:00 10.3 -- -- -- -- -- -- -- --
2020-03-20 03:00:00 10.5 5 Oeste 8 Oeste 0 -- -- 100
2020-03-20 02:00:00 10.9 0 Calma 4 Oeste 0 -- -- 100
2020-03-20 01:00:00 10.8 0 Calma 5 Norte 0 -- -- 99
2020-03-20 00:00:00 10.9 2 Este 5 Este 0 -- -- 99
2020-03-19 23:00:00 11 3 Nordeste 6 Nordeste 0 -- -- 99
2020-03-19 22:00:00 11.1 3 Nordeste 6 Norte 0 -- -- 99
2020-03-19 21:00:00 11.1 4 Norte 6 Noroeste 0 -- -- 99
2020-03-19 20:00:00 11.1 3 Este 8 Nordeste 0 -- -- 98
2020-03-19 19:00:00 11.1 5 Nordeste 11 Nordeste 0 -- -- 98
2020-03-19 18:00:00 11.4 8 Norte 13 Nordeste 0 -- -- 96
2020-03-19 17:00:00 11.7 11 Nordeste 17 Nordeste 0 -- -- 95
2020-03-19 16:00:00 12.2 13 Nordeste 17 Nordeste 0 -- -- 94
2020-03-19 15:00:00 12.9 10 Nordeste 14 Nordeste 0 -- -- 94
2020-03-19 14:00:00 13 9 Norte 15 Norte 0 -- -- 95
2020-03-19 13:00:00 13.7 8 Norte 14 Norte 0 -- -- 97
2020-03-19 12:00:00 12.1 2 Norte 6 Norte 0 -- -- 100
2020-03-19 11:00:00 11 3 Norte 6 Norte 0 -- -- 100
2020-03-19 10:00:00 10.3 0 Calma 5 Este 0 -- -- 100
2020-03-19 09:00:00 10 2 Sur 6 Sudoeste 0 -- -- 100
2020-03-19 08:00:00 10 4 Sur 10 Sudoeste 0 -- -- 100
2020-03-19 07:00:00 10.1 5 Sudoeste 8 Sudoeste 0 -- -- 100
2020-03-19 06:00:00 10.2 8 Sudoeste 11 Sudoeste 0 -- -- 99
2020-03-19 05:00:00 10.3 6 Oeste 10 Oeste 0 -- -- 99
2020-03-19 04:00:00 10.4 5 Oeste 11 Oeste 0 -- -- 99
2020-03-19 03:00:00 10.5 8 Oeste 11 Oeste 0 -- -- 99
2020-03-19 02:00:00 10.8 5 Oeste 8 Oeste 0 -- -- 99
2020-03-19 01:00:00 11 4 Oeste 5 Oeste 0 -- -- 99
2020-03-19 00:00:00 11 4 Norte 6 Norte 0 -- -- 98
2020-03-18 23:00:00 11 3 Norte 5 Norte 0 -- -- 98
2020-03-18 22:00:00 10.9 4 Norte 7 Nordeste 0 -- -- 97
2020-03-18 21:00:00 11 5 Nordeste 10 Nordeste 0 -- -- 97
2020-03-18 20:00:00 11.1 8 Nordeste 14 Nordeste 0 -- -- 96
2020-03-18 19:00:00 11.5 10 Nordeste 14 Nordeste 0 -- -- 93
2020-03-18 18:00:00 13 11 Nordeste 16 Nordeste 0 -- -- 90
2020-03-18 17:00:00 14.2 6 Norte 16 Nordeste 0 -- -- 88
2020-03-18 16:00:00 13.7 11 Nordeste 18 Nordeste 0 -- -- 89
2020-03-18 15:00:00 14.3 12 Nordeste 17 Nordeste 0 -- -- 87
2020-03-18 14:00:00 14.3 7 Nordeste 13 Nordeste 0 -- -- 88
2020-03-18 13:00:00 14.1 5 Norte 12 Norte 0 -- -- 90
2020-03-18 12:00:00 13.2 2 Nordeste 6 Oeste 0 -- -- 93
2020-03-18 11:00:00 11.4 3 Sur 6 Sudeste 0 -- -- 98
2020-03-18 10:00:00 9.2 4 Sudoeste 12 Oeste 0 -- -- 99
2020-03-18 09:00:00 7.5 9 Oeste 14 Sudoeste 0 -- -- 99
2020-03-18 08:00:00 7.3 12 Sudoeste 14 Sudoeste 0 -- -- 99
2020-03-18 07:00:00 8 6 Sur 13 Sudeste 0 -- -- 98
2020-03-18 06:00:00 8.2 8 Sur 10 Sur 0 -- -- 99
2020-03-18 05:00:00 8.3 6 Sudoeste 8 Sudoeste 0 -- -- 99
2020-03-18 04:00:00 8.1 6 Sudoeste 10 Oeste 0 -- -- 98
2020-03-18 03:00:00 8.3 8 Oeste 10 Oeste 0 -- -- 97
2020-03-18 02:00:00 8.7 8 Sudoeste 11 Oeste 0 -- -- 97
2020-03-18 01:00:00 8.9 8 Sudoeste 9 Sudoeste 0 -- -- 96
2020-03-18 00:00:00 9.6 3 Sudeste 6 Sudoeste 0 -- -- 95
2020-03-17 23:00:00 10 3 Nordeste 10 Sudeste 0 -- -- 95
2020-03-17 22:00:00 10.3 9 Sur 27 Sudeste 0 -- -- 94
2020-03-17 21:00:00 10.8 18 Sudeste 31 Sudeste 0 -- -- 93
2020-03-17 20:00:00 11.1 19 Sudeste 28 Sudeste 0 -- -- 92
2020-03-17 19:00:00 11.9 20 Este 28 Este 0 -- -- 88
2020-03-17 18:00:00 12.8 20 Este 28 Este 0 -- -- 85
2020-03-17 17:00:00 13.2 9 Este 18 Este 0 -- -- 86
2020-03-17 16:00:00 12.6 8 Nordeste 16 Este 0 -- -- 87
2020-03-17 15:00:00 13.2 7 Sudeste 21 Sudeste 0 -- -- 84
2020-03-17 14:00:00 12.7 8 Este 16 Este 0 -- -- 87
2020-03-17 13:00:00 12.1 8 Nordeste 11 Este 0 -- -- 87
2020-03-17 12:00:00 12.4 3 Nordeste 13 Sudoeste 0 -- -- 86
2020-03-17 11:00:00 10.5 9 Sudoeste 17 Sudoeste 0 -- -- 94
2020-03-17 10:00:00 9.2 12 Sudoeste 15 Sudoeste 0 -- -- 97
2020-03-17 09:00:00 8.6 4 Sudeste 7 Sur 0 -- -- 97
2020-03-17 08:00:00 8.4 4 Sur 15 Sudoeste 0 -- -- 96
2020-03-17 07:00:00 8.4 12 Sudoeste 17 Sudoeste 0 -- -- 95
2020-03-17 06:00:00 8.3 13 Sudoeste 15 Sudoeste 0 -- -- 94
2020-03-17 05:00:00 8.6 10 Oeste 17 Sudoeste 0 -- -- 94
2020-03-17 04:00:00 8.6 11 Sudoeste 15 Sudoeste 0 -- -- 94
2020-03-17 03:00:00 8.7 11 Sudoeste 15 Oeste 0 -- -- 92
2020-03-17 02:00:00 9.1 4 Oeste 13 Oeste 0 -- -- 90
2020-03-17 01:00:00 9.4 8 Noroeste 15 Noroeste 0 -- -- 88
2020-03-17 00:00:00 9.6 5 Noroeste 14 Norte 0 -- -- 85
2020-03-16 23:00:00 9.6 12 Norte 18 Norte 0 -- -- 87
2020-03-16 22:00:00 9.6 11 Norte 21 Norte 0 -- -- 88
2020-03-16 21:00:00 9.6 17 Norte 27 Norte 0 -- -- 89
2020-03-16 20:00:00 9.4 17 Norte 24 Norte 0 -- -- 94
2020-03-16 19:00:00 8.7 6 Norte 21 Norte 1.2 -- -- 97
2020-03-16 18:00:00 8.6 11 Norte 25 Norte 3.2 -- -- 96
2020-03-16 17:00:00 8.3 11 Norte 35 Norte 1.2 -- -- 92
2020-03-16 16:00:00 10.6 22 Norte 35 Norte 0 -- -- 78
2020-03-16 15:00:00 10.8 23 Norte 36 Norte 0 -- -- 77
2020-03-16 14:00:00 11 22 Norte 38 Norte 0 -- -- 76
2020-03-16 13:00:00 11 21 Norte 37 Norte 0 -- -- 78
2020-03-16 12:00:00 9.9 21 Norte 36 Norte 0 -- -- 82
2020-03-16 11:00:00 9.7 26 Norte 36 Norte 0 -- -- 85
2020-03-16 10:00:00 7.2 12 Oeste 21 Sudoeste 4 -- -- 96
2020-03-16 09:00:00 6.8 14 Sudoeste 33 Oeste 1.4 -- -- 95
2020-03-16 08:00:00 6.6 22 Oeste 35 Oeste 1 -- -- 95
2020-03-16 07:00:00 6.3 18 Oeste 30 Oeste 2.2 -- -- 94
2020-03-16 06:00:00 5.8 12 Oeste 24 Oeste 1.2 -- -- 92
2020-03-16 05:00:00 5.9 16 Oeste 30 Oeste 0 -- -- 89
2020-03-16 04:00:00 5.6 23 Oeste 33 Oeste 0 -- -- 91
2020-03-16 03:00:00 5.9 14 Oeste 27 Oeste 0.2 -- -- 94
2020-03-16 02:00:00 5.9 12 Oeste 22 Oeste 0.8 -- -- 94
2020-03-16 01:00:00 6 14 Oeste 27 Oeste 0 -- -- 94
2020-03-16 00:00:00 6.3 15 Oeste 26 Oeste 1 -- -- 95
2020-03-15 23:00:00 6.4 15 Oeste 27 Oeste 0.8 -- -- 95
2020-03-15 22:00:00 6.8 15 Oeste 30 Oeste 0 -- -- 94
2020-03-15 21:00:00 7.3 20 Oeste 37 Noroeste 0.2 -- -- 94
2020-03-15 20:00:00 8 20 Noroeste 35 Oeste 2.2 -- -- 95
2020-03-15 19:00:00 8.3 21 Oeste 44 Noroeste 1.4 -- -- 94
2020-03-15 18:00:00 10.5 25 Noroeste 40 Oeste 0 -- -- 88
2020-03-15 17:00:00 13.1 14 Norte 18 Nordeste 0 -- -- 69
2020-03-15 16:00:00 13.7 8 Sudoeste 17 Sudoeste 0 -- -- 72
2020-03-15 15:00:00 13.4 7 Sur 14 Noroeste 0 -- -- 74
2020-03-15 14:00:00 12.4 10 Noroeste 24 Noroeste 0 -- -- 79
2020-03-15 13:00:00 12.3 12 Norte 24 Noroeste 0 -- -- 84
2020-03-15 12:00:00 12.2 19 Noroeste 28 Noroeste 0 -- -- 83
2020-03-15 11:00:00 12.1 22 Oeste 35 Oeste 0 -- -- 84
2020-03-15 10:00:00 11.8 14 Oeste 28 Oeste 0 -- -- 85
2020-03-15 09:00:00 9 11 Oeste 22 Oeste 0 -- -- 90
2020-03-15 08:00:00 6.3 13 Oeste 18 Oeste 0 -- -- 93
2020-03-15 07:00:00 6.3 6 Sudoeste 10 Sudoeste 0 -- -- 94
2020-03-15 06:00:00 6.3 9 Sudoeste 13 Oeste 0 -- -- 95
2020-03-15 05:00:00 6.6 8 Sur 14 Sudeste 0 -- -- 95
2020-03-15 04:00:00 6.6 10 Sur 21 Sudoeste 0 -- -- 96
2020-03-15 03:00:00 6.3 9 Sudoeste 14 Sudoeste 0 -- -- 95
2020-03-15 02:00:00 6.8 9 Oeste 11 Sudoeste 0 -- -- 93
2020-03-15 01:00:00 7.4 6 Sur 12 Sudeste 0 -- -- 93
2020-03-15 00:00:00 7.6 8 Sudeste 20 Sudeste 0 -- -- 92
2020-03-14 23:00:00 7.9 15 Sudeste 19 Sudeste 0 -- -- 90
2020-03-14 22:00:00 8.9 10 Sudeste 13 Sudeste 0 -- -- 85
2020-03-14 21:00:00 9.9 4 Sur 5 Sudeste 0 -- -- 82
2020-03-14 20:00:00 10.5 3 Este 8 Nordeste 0 -- -- 78
2020-03-14 19:00:00 11 6 Nordeste 22 Este 0 -- -- 79
2020-03-14 18:00:00 12.3 16 Este 25 Nordeste 0 -- -- 75
2020-03-14 17:00:00 13.1 19 Nordeste 28 Nordeste 0 -- -- 77
2020-03-14 16:00:00 13.7 15 Nordeste 24 Nordeste 0 -- -- 75
2020-03-14 15:00:00 13.6 15 Nordeste 23 Norte 0 -- -- 74
2020-03-14 14:00:00 14.6 8 Nordeste 18 Nordeste 0 -- -- 70
2020-03-14 13:00:00 13.9 10 Nordeste 18 Este 0 -- -- 70
2020-03-14 12:00:00 13.1 10 Norte 15 Noroeste 0 -- -- 71
2020-03-14 11:00:00 14.4 6 Oeste 13 Norte 0 -- -- 68
2020-03-14 10:00:00 11.7 4 Sudoeste 12 Sudoeste 0 -- -- 76
2020-03-14 09:00:00 9.4 8 Sur 11 Oeste 0 -- -- 84
2020-03-14 08:00:00 7.7 8 Sur 12 Sudoeste 0 -- -- 88
2020-03-14 07:00:00 6.8 7 Sudoeste 13 Sudoeste 0 -- -- 90
2020-03-14 06:00:00 6.9 6 Sur 13 Sudeste 0 -- -- 88
2020-03-14 05:00:00 6.7 8 Sur 12 Sur 0 -- -- 89
2020-03-14 04:00:00 6.4 8 Sur 17 Sudeste 0 -- -- 90
2020-03-14 03:00:00 6.5 10 Sudeste 21 Sudeste 0 -- -- 91
2020-03-14 02:00:00 6.1 13 Sudeste 20 Sudeste 0 -- -- 91
2020-03-14 01:00:00 6.2 8 Sur 14 Sudeste 0 -- -- 91
2020-03-14 00:00:00 6.5 9 Sur 13 Sudoeste 0 -- -- 90
2020-03-13 23:00:00 7 12 Sudoeste 13 Sudoeste 0 -- -- 90
2020-03-13 22:00:00 7.9 3 Oeste 10 Sudeste 0 -- -- 84
2020-03-13 21:00:00 8.6 5 Sur 9 Este 0 -- -- 83
2020-03-13 20:00:00 9.4 6 Nordeste 18 Sudeste 0 -- -- 79
2020-03-13 19:00:00 10.9 9 Este 18 Este 0 -- -- 72
2020-03-13 18:00:00 11.7 14 Este 24 Este 0 -- -- 71
2020-03-13 17:00:00 12.7 17 Este 24 Este 0 -- -- 69
2020-03-13 16:00:00 13.3 13 Nordeste 25 Nordeste 0 -- -- 68
2020-03-13 15:00:00 13 16 Nordeste 27 Este 0 -- -- 70
2020-03-13 14:00:00 13.2 17 Nordeste 29 Nordeste 0 -- -- 73
2020-03-13 13:00:00 12.1 15 Nordeste 21 Este 0 -- -- 78
2020-03-13 12:00:00 11.5 14 Nordeste 24 Este 0 -- -- 82
2020-03-13 11:00:00 11.2 14 Este 25 Este 0 -- -- 89
2020-03-13 10:00:00 10.4 8 Nordeste 12 Este 0 -- -- 98
2020-03-13 09:00:00 9.3 2 Sudeste 5 Este 0 -- -- 99
2020-03-13 08:00:00 8.7 5 Sudeste 13 Sudeste 0 -- -- 99
2020-03-13 07:00:00 8.8 6 Sudeste 19 Este 0 -- -- 99
2020-03-13 06:00:00 8.7 10 Nordeste 20 Nordeste 0.6 -- -- 99
2020-03-13 05:00:00 8.8 6 Este 14 Nordeste 0.2 -- -- 99
2020-03-13 04:00:00 8.8 7 Nordeste 11 Este 0 -- -- 99
2020-03-13 03:00:00 8.9 9 Nordeste 20 Nordeste 0 -- -- 99
2020-03-13 02:00:00 9.3 8 Nordeste 15 Nordeste 0 -- -- 99
2020-03-13 01:00:00 9.5 12 Nordeste 18 Nordeste 0.2 -- -- 99
2020-03-13 00:00:00 9.7 6 Nordeste 14 Este 0 -- -- 99
2020-03-12 23:00:00 9.7 8 Este 14 Nordeste 0.6 -- -- 99
2020-03-12 22:00:00 10 0 Calma 5 Sudeste 0.4 -- -- 98
2020-03-12 21:00:00 10.2 2 Sur 9 Norte 0.8 -- -- 98
2020-03-12 20:00:00 10.2 4 Nordeste 12 Oeste 1.6 -- -- 98
2020-03-12 19:00:00 10.3 5 Noroeste 13 Noroeste 0.4 -- -- 98
2020-03-12 18:00:00 10.6 8 Oeste 20 Noroeste 0.2 -- -- 97
2020-03-12 17:00:00 10.4 12 Noroeste 29 Norte 1.2 -- -- 97
2020-03-12 16:00:00 11 21 Norte 32 Norte 0.6 -- -- 95
2020-03-12 15:00:00 12.9 3 Noroeste 6 Oeste 0.2 -- -- 93
2020-03-12 14:00:00 12.8 5 Noroeste 6 Noroeste 0 -- -- 92
2020-03-12 13:00:00 13.1 4 Noroeste 8 Nordeste 0 -- -- 89
2020-03-12 12:00:00 12.9 4 Sudeste 9 Este 0 -- -- 90
2020-03-12 11:00:00 12.5 0 Calma 3 Sur 0 -- -- 93
2020-03-12 10:00:00 12.2 3 Sur 5 Sudeste 0 -- -- 94
2020-03-12 09:00:00 11.9 0 Calma 9 Sudeste 0 -- -- 95
2020-03-12 08:00:00 11.5 5 Sudeste 8 Sur 0 -- -- 95
2020-03-12 07:00:00 11.4 3 Sudeste 16 Sudeste 0 -- -- 95
2020-03-12 06:00:00 11.4 10 Sudeste 14 Sur 0 -- -- 95
2020-03-12 05:00:00 11.3 6 Sur 9 Sur 0 -- -- 95
2020-03-12 04:00:00 11.4 4 Sur 8 Sur 0 -- -- 95
2020-03-12 03:00:00 11.4 4 Sur 10 Sur 0 -- -- 95
2020-03-12 02:00:00 11.4 4 Sur 10 Sudoeste 0 -- -- 95
2020-03-12 01:00:00 11.3 7 Sudoeste 11 Sudoeste 0 -- -- 95
2020-03-12 00:00:00 11.1 6 Sudoeste 8 Sudoeste 0 -- -- 95
2020-03-11 23:00:00 11.2 4 Noroeste 9 Noroeste 0 -- -- 95
2020-03-11 22:00:00 11 9 Norte 12 Norte 0 -- -- 92
2020-03-11 21:00:00 12 4 Oeste 5 Norte 0 -- -- 88
2020-03-11 20:00:00 12.2 6 Nordeste 12 Nordeste 0 -- -- 87
2020-03-11 19:00:00 14.2 4 Nordeste 12 Nordeste 0 -- -- 80
2020-03-11 18:00:00 15.5 10 Nordeste 18 Norte 0 -- -- 76
2020-03-11 17:00:00 16.8 12 Norte 19 Norte 0 -- -- 73
2020-03-11 16:00:00 17.3 10 Norte 22 Norte 0 -- -- 72
2020-03-11 15:00:00 17.1 15 Norte 24 Norte 0 -- -- 74
2020-03-11 14:00:00 17.6 13 Nordeste 18 Nordeste 0 -- -- 73
2020-03-11 13:00:00 17.4 9 Nordeste 20 Este 0 -- -- 75
2020-03-11 12:00:00 16.1 15 Nordeste 22 Nordeste 0 -- -- 78
2020-03-11 11:00:00 15.5 4 Este 13 Sudeste 0 -- -- 76
2020-03-11 10:00:00 12.2 10 Sudeste 18 Sudeste 0 -- -- 80
2020-03-11 09:00:00 9.5 10 Sur 19 Sudeste 0 -- -- 87
2020-03-11 08:00:00 7.9 10 Sur 15 Sudeste 0 -- -- 92
2020-03-11 07:00:00 7.6 10 Sur 17 Sudeste 0 -- -- 93
2020-03-11 06:00:00 7.6 7 Sur 15 Sudeste 0 -- -- 93
2020-03-11 05:00:00 7.7 10 Sur 14 Sudeste 0 -- -- 93
2020-03-11 04:00:00 8 9 Sur 22 Sudeste 0 -- -- 92
2020-03-11 03:00:00 9.1 10 Sudeste 17 Sudeste 0 -- -- 89
2020-03-11 02:00:00 8.9 9 Sudeste 17 Sudeste 0 -- -- 94
2020-03-11 01:00:00 8.6 12 Sur 22 Sudeste 0 -- -- 94
2020-03-11 00:00:00 9.1 8 Sur 14 Sur 0 -- -- 93
2020-03-10 23:00:00 9.6 10 Sur 12 Sur 0 -- -- 92
2020-03-10 22:00:00 10.4 5 Sudoeste 8 Sur 0 -- -- 89
2020-03-10 21:00:00 11.1 6 Sur 8 Sur 0 -- -- 87
2020-03-10 20:00:00 12.1 4 Nordeste 8 Sudeste 0 -- -- 82
2020-03-10 19:00:00 13.5 6 Sur 10 Norte 0 -- -- 77
2020-03-10 18:00:00 13.2 8 Norte 13 Nordeste 0 -- -- 78
2020-03-10 17:00:00 14.1 9 Nordeste 17 Nordeste 0 -- -- 76
2020-03-10 16:00:00 14.4 10 Nordeste 23 Nordeste 0 -- -- 74
2020-03-10 15:00:00 14.2 10 Nordeste 18 Norte 0 -- -- 77
2020-03-10 14:00:00 14.1 7 Norte 14 Nordeste 0 -- -- 78
2020-03-10 13:00:00 13.1 10 Norte 21 Norte 0 -- -- 81
2020-03-10 12:00:00 13.1 8 Norte 12 Nordeste 0 -- -- 79
2020-03-10 11:00:00 12.2 4 Sudoeste 15 Sudoeste 0 -- -- 79
2020-03-10 10:00:00 9.4 11 Sudoeste 16 Sudeste 0 -- -- 83
2020-03-10 09:00:00 7.4 18 Sudeste 21 Sudeste 0 -- -- 87
2020-03-10 08:00:00 6.6 9 Sur 16 Sudeste 0 -- -- 88
2020-03-10 07:00:00 6.9 7 Sur 12 Sur 0 -- -- 89
2020-03-10 06:00:00 7.2 5 Sur 10 Sur 0 -- -- 89
2020-03-10 05:00:00 7.3 8 Sur 13 Sudoeste 0 -- -- 90
2020-03-10 04:00:00 7.6 7 Sur 14 Sur 0 -- -- 90
2020-03-10 03:00:00 8.2 9 Sur 12 Sur 0 -- -- 89
2020-03-10 02:00:00 8.3 12 Sudoeste 16 Sudoeste 0 -- -- 89
2020-03-10 01:00:00 9.2 10 Sudoeste 11 Sudoeste 0 -- -- 87
2020-03-10 00:00:00 9.4 8 Sur 13 Sudoeste 0 -- -- 86
2020-03-09 23:00:00 9.6 8 Sudoeste 13 Sudoeste 0 -- -- 87
2020-03-09 22:00:00 9.9 10 Sudoeste 12 Sudoeste 0 -- -- 86
2020-03-09 21:00:00 10.3 8 Sudoeste 10 Sudoeste 0 -- -- 84
2020-03-09 20:00:00 10.8 6 Sudoeste 15 Oeste 0 -- -- 84
2020-03-09 19:00:00 11.2 10 Noroeste 22 Noroeste 0 -- -- 82
2020-03-09 18:00:00 12.4 14 Noroeste 28 Noroeste 0 -- -- 75
2020-03-09 17:00:00 12.9 16 Noroeste 30 Noroeste 0 -- -- 72
2020-03-09 16:00:00 13.2 17 Noroeste 36 Oeste 0 -- -- 71
2020-03-09 15:00:00 12.9 22 Noroeste 37 Noroeste 0 -- -- 68
2020-03-09 14:00:00 13 22 Noroeste 47 Noroeste 0 -- -- 67
2020-03-09 13:00:00 13.1 29 Noroeste 47 Noroeste 0 -- -- 67
2020-03-09 12:00:00 13 28 Noroeste 44 Noroeste 0 -- -- 66
2020-03-09 11:00:00 12.8 17 Noroeste 35 Noroeste 0 -- -- 69
2020-03-09 10:00:00 12.1 17 Noroeste 37 Noroeste 0 -- -- 74
2020-03-09 09:00:00 11 18 Oeste 29 Oeste 0 -- -- 77
2020-03-09 08:00:00 10.5 18 Oeste 34 Oeste 0 -- -- 79
2020-03-09 07:00:00 10.5 20 Noroeste 38 Oeste 0 -- -- 81
2020-03-09 06:00:00 10.6 16 Oeste 37 Noroeste 0 -- -- 81
2020-03-09 05:00:00 10.2 17 Oeste 41 Oeste 0 -- -- 84
2020-03-09 04:00:00 10.4 21 Oeste 39 Oeste 0 -- -- 85
2020-03-09 03:00:00 10.6 22 Oeste 36 Noroeste 0 -- -- 85
2020-03-09 02:00:00 10 25 Oeste 44 Oeste 0.2 -- -- 88
2020-03-09 01:00:00 9.9 23 Oeste 41 Oeste 1 -- -- 91
2020-03-09 00:00:00 9.7 15 Oeste 38 Oeste 0.8 -- -- 90
2020-03-08 23:00:00 10 24 Noroeste 53 Noroeste 1.2 -- -- 91
2020-03-08 22:00:00 11.4 19 Noroeste 48 Noroeste 0 -- -- 84
2020-03-08 21:00:00 12 30 Noroeste 45 Noroeste 0 -- -- 80
2020-03-08 20:00:00 11.8 18 Oeste 35 Oeste 0 -- -- 84
2020-03-08 19:00:00 12.1 17 Oeste 30 Oeste 0 -- -- 84
2020-03-08 18:00:00 12.4 12 Noroeste 23 Noroeste 0 -- -- 82
2020-03-08 17:00:00 12.8 15 Noroeste 32 Noroeste 0 -- -- 79
2020-03-08 16:00:00 13.7 17 Noroeste 35 Noroeste 0 -- -- 77
2020-03-08 15:00:00 16.4 20 Noroeste 30 Noroeste 0 -- -- 64
2020-03-08 14:00:00 18 6 Sudoeste 11 Sudoeste 0 -- -- 59
2020-03-08 13:00:00 15.3 5 Sudoeste 10 Sudoeste 0 -- -- 64
2020-03-08 12:00:00 14.3 2 Sudeste 16 Sur 0 -- -- 70
2020-03-08 11:00:00 12.2 10 Sur 17 Sudeste 0 -- -- 74
2020-03-08 10:00:00 10.2 6 Sudoeste 14 Sur 0 -- -- 77
2020-03-08 09:00:00 8.4 9 Sur 14 Sudeste 0 -- -- 82
2020-03-08 08:00:00 7.5 10 Sur 19 Sudeste 0 -- -- 86
2020-03-08 07:00:00 6.4 9 Sur 15 Sur 0 -- -- 88
2020-03-08 06:00:00 5.2 11 Sudoeste 24 Sudoeste 0 -- -- 91
2020-03-08 05:00:00 5.5 8 Sudoeste 15 Sudeste 0 -- -- 90
2020-03-08 04:00:00 5.4 12 Sur 17 Sudeste 0 -- -- 91
2020-03-08 03:00:00 5.5 10 Sur 18 Sudoeste 0 -- -- 91
2020-03-08 02:00:00 6.1 14 Oeste 20 Oeste 0 -- -- 88
2020-03-08 01:00:00 6.4 9 Sur 19 Sudeste 0 -- -- 87
2020-03-08 00:00:00 7 12 Sur 26 Sudeste 0 -- -- 86
2020-03-07 23:00:00 7.5 18 Sudeste 22 Sudeste 0 -- -- 85
2020-03-07 22:00:00 8.4 14 Sudeste 18 Sudeste 0 -- -- 83
2020-03-07 21:00:00 10.3 4 Sudeste 8 Sudeste 0 -- -- 77
2020-03-07 20:00:00 11 5 Este 8 Este 0 -- -- 72
2020-03-07 19:00:00 11.5 5 Este 8 Este 0 -- -- 74
2020-03-07 18:00:00 12.2 4 Nordeste 14 Norte 0 -- -- 73
2020-03-07 17:00:00 12.9 6 Norte 17 Norte 0 -- -- 68
2020-03-07 16:00:00 13.8 13 Norte 26 Noroeste 0 -- -- 61
2020-03-07 15:00:00 14.1 15 Noroeste 30 Noroeste 0 -- -- 63
2020-03-07 14:00:00 14.3 15 Noroeste 37 Oeste 0 -- -- 62
2020-03-07 13:00:00 13.9 23 Noroeste 37 Oeste 0 -- -- 67
2020-03-07 12:00:00 12.6 12 Oeste 26 Oeste 0 -- -- 81
2020-03-07 11:00:00 9.9 9 Oeste 19 Oeste 1 -- -- 97
2020-03-07 10:00:00 9.6 10 Oeste 31 Oeste 0.4 -- -- 96
2020-03-07 09:00:00 9.4 20 Oeste 33 Oeste 0.4 -- -- 96
2020-03-07 08:00:00 9.5 19 Oeste 32 Oeste 0.2 -- -- 93
2020-03-07 07:00:00 9 10 Sudoeste 22 Oeste 0.8 -- -- 93
2020-03-07 06:00:00 9.6 13 Oeste 33 Noroeste 0 -- -- 90
2020-03-07 05:00:00 9.4 22 Oeste 39 Oeste 0 -- -- 93
2020-03-07 04:00:00 9.3 21 Oeste 38 Noroeste 0 -- -- 92
2020-03-07 03:00:00 8.9 22 Oeste 40 Oeste 0.2 -- -- 93
2020-03-07 02:00:00 8.3 15 Oeste 32 Oeste 0.4 -- -- 90
2020-03-07 01:00:00 8.8 20 Oeste 40 Oeste 0 -- -- 84
2020-03-07 00:00:00 9 22 Oeste 41 Oeste 0 -- -- 81
2020-03-06 23:00:00 8.7 26 Oeste 41 Oeste 0 -- -- 82
2020-03-06 22:00:00 7.9 19 Oeste 48 Noroeste 0.2 -- -- 90
2020-03-06 21:00:00 8.1 30 Noroeste 50 Noroeste 1 -- -- 88
2020-03-06 20:00:00 8.5 28 Oeste 61 Noroeste 0 -- -- 85
2020-03-06 19:00:00 7.4 22 Noroeste 76 Noroeste 2.4 -- -- 89
2020-03-06 18:00:00 7.6 39 Noroeste 66 Noroeste 1.4 -- -- 84
2020-03-06 17:00:00 7.2 50 Noroeste 86 Noroeste 3.6 -- -- 86
2020-03-06 16:00:00 6.2 37 Noroeste 70 Noroeste 4 -- -- 85
2020-03-06 15:00:00 9.5 44 Noroeste 85 Noroeste 0.6 -- -- 71
2020-03-06 14:00:00 9.4 48 Oeste 78 Noroeste 0 -- -- 74
2020-03-06 13:00:00 10 39 Noroeste 109 Noroeste 0.4 -- -- 72
2020-03-06 12:00:00 9.6 44 Noroeste 73 Noroeste 0.2 -- -- 68
2020-03-06 11:00:00 8.3 37 Oeste 74 Oeste 0.6 -- -- 82
2020-03-06 10:00:00 8.7 51 Noroeste 86 Oeste 0 -- -- 75
2020-03-06 09:00:00 8 41 Noroeste 77 Noroeste 0.6 -- -- 82
2020-03-06 08:00:00 6.4 41 Noroeste 99 Oeste 1.4 -- -- 89
2020-03-06 07:00:00 6.5 43 Noroeste 73 Oeste 3.6 -- -- 90
2020-03-06 06:00:00 6.5 43 Oeste 76 Oeste 2.2 -- -- 89
2020-03-06 05:00:00 7 34 Oeste 81 Noroeste 1.4 -- -- 89
2020-03-06 04:00:00 8.5 29 Oeste 67 Oeste 0 -- -- 80
2020-03-06 03:00:00 8.5 15 Oeste 44 Oeste 0 -- -- 80
2020-03-06 02:00:00 9 33 Oeste 56 Oeste 0.4 -- -- 83
2020-03-06 01:00:00 7.8 7 Sudoeste 17 Sudoeste 0 -- -- 83
2020-03-06 00:00:00 7.7 13 Sudoeste 21 Sudoeste 0 -- -- 84
2020-03-05 23:00:00 8.7 16 Sudoeste 23 Sudoeste 0 -- -- 81
2020-03-05 22:00:00 8.5 13 Oeste 29 Oeste 0 -- -- 86
2020-03-05 21:00:00 8.4 15 Oeste 56 Oeste 1.8 -- -- 87
2020-03-05 20:00:00 8.7 27 Noroeste 53 Noroeste 2.6 -- -- 87
2020-03-05 19:00:00 10 23 Oeste 60 Oeste 0 -- -- 83
2020-03-05 18:00:00 11.2 24 Oeste 50 Noroeste 0 -- -- 78
2020-03-05 17:00:00 11.8 35 Noroeste 72 Noroeste 0 -- -- 76
2020-03-05 16:00:00 11.2 37 Noroeste 84 Noroeste 0.8 -- -- 80
2020-03-05 15:00:00 11.9 34 Oeste 73 Oeste 0.2 -- -- 85
2020-03-05 14:00:00 12.4 42 Noroeste 95 Oeste 0 -- -- 80
2020-03-05 13:00:00 13.7 51 Noroeste 86 Noroeste 0 -- -- 71
2020-03-05 12:00:00 14.6 27 Noroeste 64 Oeste 0 -- -- 64
2020-03-05 11:00:00 13.1 18 Oeste 29 Oeste 0 -- -- 81
2020-03-05 10:00:00 11 15 Oeste 33 Oeste 0.8 -- -- 92
2020-03-05 09:00:00 10.9 22 Oeste 47 Oeste 2 -- -- 94
2020-03-05 08:00:00 10.9 26 Noroeste 54 Noroeste 1.6 -- -- 93
2020-03-05 07:00:00 11.2 27 Oeste 77 Noroeste 0.8 -- -- 91
2020-03-05 06:00:00 17.9 14 Sudoeste 32 Sudoeste 0 -- -- 60
2020-03-05 05:00:00 18.3 14 Sudoeste 49 Sur 0 -- -- 58
2020-03-05 04:00:00 18.5 32 Sudoeste 47 Sudoeste 0 -- -- 59
2020-03-05 03:00:00 18 19 Sudoeste 38 Sur 0 -- -- 60
2020-03-05 02:00:00 16.9 14 Sudoeste 31 Sur 0 -- -- 65
2020-03-05 01:00:00 15.8 10 Sudoeste 18 Oeste 0 -- -- 68
2020-03-05 00:00:00 14.9 14 Sudoeste 18 Sudoeste 0 -- -- 72
2020-03-04 23:00:00 14.4 8 Sur 23 Sudeste 0 -- -- 79
2020-03-04 22:00:00 14.4 8 Sur 24 Sudeste 0 -- -- 81
2020-03-04 21:00:00 14.2 19 Sudeste 25 Sudeste 0 -- -- 83
2020-03-04 20:00:00 14.6 16 Sudeste 23 Sudeste 0 -- -- 83
2020-03-04 19:00:00 15.4 6 Sudeste 14 Sudeste 0 -- -- 79
2020-03-04 18:00:00 16.3 5 Nordeste 12 Norte 0 -- -- 76
2020-03-04 17:00:00 16.7 5 Norte 15 Nordeste 0 -- -- 75
2020-03-04 16:00:00 16.5 11 Nordeste 17 Norte 0 -- -- 74
2020-03-04 15:00:00 17.5 11 Nordeste 15 Nordeste 0 -- -- 73
2020-03-04 14:00:00 18.3 3 Norte 6 Noroeste 0 -- -- 71
2020-03-04 13:00:00 16.9 3 Nordeste 12 Nordeste 0 -- -- 75
2020-03-04 12:00:00 15.7 8 Nordeste 10 Nordeste 0 -- -- 82
2020-03-04 11:00:00 15.2 4 Este 18 Sudoeste 0 -- -- 85
2020-03-04 10:00:00 14.5 6 Sudoeste 12 Sur 0 -- -- 83
2020-03-04 09:00:00 13.6 10 Sur 18 Sudoeste 0 -- -- 87
2020-03-04 08:00:00 12 11 Sudoeste 20 Sudoeste 0 -- -- 92
2020-03-04 07:00:00 11.5 11 Sur 14 Sur 0 -- -- 96
2020-03-04 06:00:00 11 8 Sudoeste 18 Sur 0 -- -- 98
2020-03-04 05:00:00 10.8 10 Sudeste 19 Sudeste 0.2 -- -- 98
2020-03-04 04:00:00 10.6 14 Sudeste 21 Sudeste 1.8 -- -- 98
2020-03-04 03:00:00 10.6 8 Sur 16 Sudeste 0.4 -- -- 97
2020-03-04 02:00:00 10.3 7 Sudeste 13 Noroeste 0.2 -- -- 98
2020-03-04 01:00:00 10.2 9 Sudeste 17 Sudeste 0 -- -- 98
2020-03-04 00:00:00 10.3 8 Sur 10 Sur 0.2 -- -- 97
2020-03-03 23:00:00 10.3 6 Sudeste 11 Sudeste 0.2 -- -- 96
2020-03-03 22:00:00 10.5 4 Nordeste 5 Nordeste 0.2 -- -- 95
2020-03-03 21:00:00 10.6 5 Norte 19 Noroeste 0 -- -- 93
2020-03-03 20:00:00 11 10 Norte 29 Noroeste 0.2 -- -- 93
2020-03-03 19:00:00 11.9 18 Noroeste 46 Noroeste 0 -- -- 90
2020-03-03 18:00:00 12.7 31 Noroeste 54 Noroeste 0 -- -- 85
2020-03-03 17:00:00 13 37 Noroeste 62 Noroeste 0 -- -- 83
2020-03-03 16:00:00 13.7 42 Noroeste 81 Noroeste 0 -- -- 79
2020-03-03 15:00:00 14.6 50 Noroeste 100 Noroeste 0 -- -- 77
2020-03-03 14:00:00 15.5 55 Noroeste 100 Noroeste 0 -- -- 77
2020-03-03 13:00:00 16.1 56 Noroeste 91 Noroeste 0 -- -- 73
2020-03-03 12:00:00 16 56 Noroeste 81 Noroeste 0.2 -- -- 78
2020-03-03 11:00:00 16.4 8 Oeste 26 Oeste 0 -- -- 69
2020-03-03 10:00:00 11.1 12 Sudoeste 21 Sudoeste 0 -- -- 81
2020-03-03 09:00:00 8.8 13 Sudoeste 19 Sudoeste 0 -- -- 84
2020-03-03 08:00:00 8.1 8 Sudoeste 24 Sudeste 0 -- -- 84
2020-03-03 07:00:00 7.2 17 Sudeste 26 Sudeste 0.8 -- -- 87
2020-03-03 06:00:00 6.8 8 Sudeste 22 Sur 2.6 -- -- 85
2020-03-03 05:00:00 7 9 Sudoeste 18 Sudoeste 0.4 -- -- 79
2020-03-03 04:00:00 7.6 13 Sudoeste 31 Oeste 0 -- -- 71
2020-03-03 03:00:00 6.8 8 Sur 15 Sur 0 -- -- 77
2020-03-03 02:00:00 6.2 8 Sur 19 Sudeste 0 -- -- 81
2020-03-03 01:00:00 5.8 12 Sur 18 Sudeste 0 -- -- 84
2020-03-03 00:00:00 6.6 8 Sudoeste 19 Sudoeste 0 -- -- 79
2020-03-02 23:00:00 6.4 13 Sudoeste 22 Sudoeste 0 -- -- 82
2020-03-02 22:00:00 6.3 18 Sudoeste 23 Sudoeste 0 -- -- 85
2020-03-02 21:00:00 6.3 9 Sudoeste 59 Noroeste 0.4 -- -- 89
2020-03-02 20:00:00 7 24 Oeste 50 Oeste 1.6 -- -- 89
2020-03-02 19:00:00 7.2 18 Oeste 58 Oeste 1.2 -- -- 83
2020-03-02 18:00:00 8.5 30 Oeste 55 Oeste 0 -- -- 76
2020-03-02 17:00:00 9.4 37 Oeste 68 Oeste 1.2 -- -- 76
2020-03-02 16:00:00 8.7 31 Oeste 78 Oeste 0.4 -- -- 80
2020-03-02 15:00:00 7.1 32 Oeste 63 Oeste 2 -- -- 85
2020-03-02 14:00:00 7.4 39 Oeste 74 Oeste 0.6 -- -- 82
2020-03-02 13:00:00 7.4 38 Oeste 62 Oeste 0.8 -- -- 82
2020-03-02 12:00:00 5.9 19 Oeste 67 Oeste 3.6 -- -- 90
2020-03-02 11:00:00 7.1 36 Oeste 58 Oeste 0 -- -- 81
2020-03-02 10:00:00 7.5 23 Oeste 42 Oeste 0.8 -- -- 83
2020-03-02 09:00:00 7.5 30 Oeste 64 Oeste 0.4 -- -- 85
2020-03-02 08:00:00 7.5 27 Oeste 65 Oeste 0.6 -- -- 86
2020-03-02 07:00:00 7 48 Oeste 98 Oeste 8.8 -- -- 93
2020-03-02 06:00:00 9.2 39 Noroeste 93 Oeste 3 -- -- 92
2020-03-02 05:00:00 9.3 36 Oeste 88 Noroeste 2.2 -- -- 94
2020-03-02 04:00:00 9.6 49 Oeste 78 Oeste 6.8 -- -- 94
2020-03-02 03:00:00 9.8 6 Norte 15 Noroeste 0.6 -- -- 94
2020-03-02 02:00:00 10.2 8 Oeste 19 Noroeste 0.2 -- -- 92
2020-03-02 01:00:00 10.4 6 Norte 9 Norte 0.2 -- -- 88
2020-03-02 00:00:00 10.5 6 Nordeste 7 Norte 0 -- -- 85
2020-03-01 23:00:00 11.2 3 Sur 13 Sudeste 0 -- -- 80
2020-03-01 22:00:00 11.8 13 Sudeste 25 Sudeste 0 -- -- 76
2020-03-01 21:00:00 11.9 14 Sudeste 20 Sudeste 0 -- -- 79
2020-03-01 20:00:00 12.2 5 Sudeste 12 Este 0 -- -- 76
2020-03-01 19:00:00 12.5 9 Sudeste 13 Este 0 -- -- 74
2020-03-01 18:00:00 13.2 8 Sudeste 12 Sudeste 0 -- -- 73
2020-03-01 17:00:00 14 3 Sudeste 16 Norte 0 -- -- 74
2020-03-01 16:00:00 14.4 13 Norte 20 Norte 0 -- -- 73
2020-03-01 15:00:00 14.5 10 Norte 18 Norte 0 -- -- 74
2020-03-01 14:00:00 14.8 11 Norte 30 Noroeste 0 -- -- 76
2020-03-01 13:00:00 14.4 21 Noroeste 37 Noroeste 0 -- -- 74
2020-03-01 12:00:00 13.8 26 Noroeste 49 Oeste 0 -- -- 76
2020-03-01 11:00:00 16 28 Noroeste 42 Oeste 0 -- -- 55
2020-03-01 10:00:00 15.8 7 Oeste 22 Sudoeste 0 -- -- 54
2020-03-01 09:00:00 13 15 Sudoeste 45 Sudoeste 0 -- -- 60
2020-03-01 08:00:00 13.7 39 Sudoeste 65 Sudoeste 0 -- -- 54
2020-03-01 07:00:00 12.5 19 Sudoeste 31 Sudoeste 0 -- -- 59
2020-03-01 06:00:00 11.5 18 Sudoeste 32 Sur 0 -- -- 63
2020-03-01 05:00:00 8.2 7 Sur 10 Sur 0 -- -- 88
2020-03-01 04:00:00 8.8 4 Oeste 9 Sudeste 0 -- -- 86
2020-03-01 03:00:00 9.5 8 Sur 18 Sudeste 0 -- -- 84
2020-03-01 02:00:00 9.8 12 Sudeste 20 Sudeste 0 -- -- 84
2020-03-01 01:00:00 9.9 13 Sudeste 20 Sudeste 0 -- -- 84
2020-03-01 00:00:00 10.3 14 Sudeste 18 Sudeste 0 -- -- 82
2020-02-29 23:00:00 10.6 9 Sudeste 15 Sudeste 0 -- -- 82
2020-02-29 22:00:00 10.8 6 Sur 16 Sudeste 0 -- -- 82
2020-02-29 21:00:00 11 9 Sudeste 14 Sudeste 0 -- -- 80
2020-02-29 20:00:00 11 10 Sudeste 12 Sudeste 0 -- -- 81
2020-02-29 19:00:00 11.4 5 Oeste 10 Oeste 0 -- -- 78
2020-02-29 18:00:00 11.5 7 Noroeste 21 Noroeste 0 -- -- 77
2020-02-29 17:00:00 11.7 19 Noroeste 26 Noroeste 0 -- -- 74
2020-02-29 16:00:00 11.6 12 Oeste 43 Noroeste 0 -- -- 77
2020-02-29 15:00:00 11.9 23 Noroeste 49 Noroeste 0 -- -- 73
2020-02-29 14:00:00 13.6 11 Oeste 35 Noroeste 0 -- -- 69
2020-02-29 13:00:00 13.3 15 Noroeste 34 Noroeste 0 -- -- 69
2020-02-29 12:00:00 12.9 0 Calma 28 Oeste 0 -- -- 77
2020-02-29 11:00:00 12.2 8 Oeste 31 Noroeste 0 -- -- 82
2020-02-29 10:00:00 13 6 Nordeste 10 Nordeste 0 -- -- 81
2020-02-29 09:00:00 13.3 4 Sur 9 Noroeste 0 -- -- 75
2020-02-29 08:00:00 13.3 7 Noroeste 33 Sudoeste 0 -- -- 70
2020-02-29 07:00:00 15.6 24 Sudoeste 55 Sudoeste 0 -- -- 48
2020-02-29 06:00:00 16.4 32 Sudoeste 54 Sur 0 -- -- 43
2020-02-29 05:00:00 17.4 21 Sur 57 Sudoeste 0 -- -- 32
2020-02-29 04:00:00 18.9 41 Sudoeste 80 Sudoeste 0 -- -- 25
2020-02-29 03:00:00 19.3 26 Sudoeste 80 Sudoeste 0 -- -- 30
2020-02-29 02:00:00 19.2 45 Sudoeste 72 Sudoeste 0 -- -- 27
2020-02-29 01:00:00 17.4 21 Sudeste 42 Sur 0 -- -- 38
2020-02-29 00:00:00 18.8 26 Sudoeste 40 Sudoeste 0 -- -- 33